createdAt,value
2019-04-23T00:00:11.743Z,2.58
2019-04-23T00:02:20.600Z,2.90
2019-04-23T00:04:48.141Z,2.58
2019-04-23T00:09:56.884Z,2.95
2019-04-23T00:12:29.971Z,2.80
2019-04-23T00:15:05.159Z,3.05
2019-04-23T00:17:38.897Z,2.83
2019-04-23T00:20:06.183Z,2.55
2019-04-23T00:22:36.678Z,2.92
2019-04-23T00:25:34.467Z,2.60
2019-04-23T00:27:51.588Z,2.50
2019-04-23T00:30:23.924Z,2.30
2019-04-23T00:33:29.695Z,2.90
2019-04-23T00:35:56.512Z,2.52
2019-04-23T00:38:38.590Z,2.27
2019-04-23T00:41:05.685Z,2.75
2019-04-23T00:43:43.290Z,2.75
2019-04-23T00:46:13.406Z,2.50
2019-04-23T00:48:45.410Z,2.77
2019-04-23T00:51:20.610Z,2.65
2019-04-23T00:53:43.637Z,2.27
2019-04-23T00:56:32.336Z,2.75
2019-04-23T00:58:49.499Z,2.70
2019-04-23T01:01:18.311Z,2.70
2019-04-23T01:03:55.114Z,2.30
2019-04-23T01:06:25.570Z,2.33
2019-04-23T01:08:55.179Z,2.37
2019-04-23T01:11:27.640Z,2.40
2019-04-23T01:13:52.988Z,2.55
2019-04-23T01:16:31.519Z,2.60
2019-04-23T01:19:12.185Z,3.12
2019-04-23T01:21:24.457Z,2.22
2019-04-23T01:24:08.301Z,2.50
2019-04-23T01:27:32.511Z,2.58
2019-04-23T01:29:56.149Z,2.30
2019-04-23T01:32:32.128Z,2.27
2019-04-23T01:37:36.765Z,2.60
2019-04-23T01:40:04.230Z,2.58
2019-04-23T01:47:49.731Z,2.58
2019-04-23T01:52:53.949Z,2.90
2019-04-23T01:58:06.979Z,3.08
2019-04-23T02:00:30.362Z,2.50
2019-04-23T02:06:44.828Z,3.40
2019-04-23T02:09:17.101Z,3.10
2019-04-23T02:12:07.116Z,2.80
2019-04-23T02:14:26.754Z,3.20
2019-04-23T02:16:50.255Z,2.98
2019-04-23T02:19:23.852Z,3.00
2019-04-23T02:22:03.968Z,2.27
2019-04-23T02:27:12.208Z,3.10
2019-04-23T02:29:56.896Z,2.62
2019-04-23T02:32:08.895Z,3.10
2019-04-23T02:35:09.996Z,2.65
2019-04-23T02:37:40.872Z,3.00
2019-04-23T02:40:01.943Z,3.02
2019-04-23T02:42:43.321Z,2.95
2019-04-23T02:44:56.123Z,2.80
2019-04-23T02:47:35.008Z,2.85
2019-04-23T02:50:32.919Z,3.30
2019-04-23T02:52:28.990Z,4.05
2019-04-23T02:57:36.415Z,3.20
2019-04-23T03:00:18.919Z,3.47
2019-04-23T03:02:58.786Z,2.75
2019-04-23T03:05:20.071Z,3.10
2019-04-23T03:07:47.491Z,3.10
2019-04-23T03:23:46.687Z,3.10
2019-04-23T03:26:31.620Z,4.00
2019-04-23T03:29:04.339Z,3.33
2019-04-23T03:33:08.570Z,3.77
2019-04-23T03:34:19.602Z,3.77
2019-04-23T03:38:48.375Z,3.40
2019-04-23T03:41:27.792Z,3.45
2019-04-23T03:46:30.370Z,3.40
2019-04-23T03:48:54.970Z,3.42
2019-04-23T03:56:44.817Z,3.55
2019-04-23T03:59:31.655Z,3.30
2019-04-23T04:01:34.731Z,3.67
2019-04-23T04:07:01.277Z,3.27
2019-04-23T04:09:26.055Z,3.80
2019-04-23T04:11:27.473Z,3.83
2019-04-23T04:19:34.008Z,3.17
2019-04-23T04:24:27.493Z,3.37
2019-04-23T04:27:01.750Z,3.40
2019-04-23T04:29:47.103Z,3.85
2019-04-23T04:39:33.989Z,3.92
2019-04-23T04:42:06.152Z,3.40
2019-04-23T04:47:27.874Z,3.83
2019-04-23T04:54:24.562Z,3.95
2019-04-23T04:57:21.858Z,3.80
2019-04-23T04:59:54.036Z,4.15
2019-04-23T05:04:59.873Z,3.60
2019-04-23T05:07:27.668Z,4.50
2019-04-23T05:09:55.159Z,3.92
2019-04-23T05:12:23.795Z,3.87
2019-04-23T05:14:56.855Z,3.52
2019-04-23T05:17:54.619Z,3.95
2019-04-23T05:20:16.723Z,4.05
2019-04-23T05:22:49.353Z,3.90
2019-04-23T05:25:15.531Z,4.37
2019-04-23T05:27:53.629Z,3.87
2019-04-23T05:30:24.814Z,4.25
2019-04-23T05:32:49.112Z,4.20
2019-04-23T05:35:33.298Z,4.08
2019-04-23T05:41:03.745Z,4.10
2019-04-23T05:42:53.284Z,4.30
2019-04-23T05:45:33.299Z,4.75
2019-04-23T05:48:06.757Z,3.98
2019-04-23T05:50:50.613Z,3.70
2019-04-23T05:55:43.028Z,4.58
2019-04-23T05:58:18.511Z,4.58
2019-04-23T06:03:22.891Z,4.80
2019-04-23T06:05:59.770Z,4.60
2019-04-23T06:08:35.147Z,4.72
2019-04-23T06:11:02.555Z,4.62
2019-04-23T06:13:35.609Z,5.15
2019-04-23T06:15:59.353Z,4.40
2019-04-23T06:18:38.961Z,4.35
2019-04-23T06:23:50.145Z,5.00
2019-04-23T06:26:19.815Z,4.80
2019-04-23T06:28:46.223Z,5.53
2019-04-23T06:31:20.449Z,5.22
2019-04-23T06:33:43.379Z,4.78
2019-04-23T06:36:18.998Z,5.10
2019-04-23T06:38:53.388Z,4.70
2019-04-23T06:43:59.904Z,5.40
2019-04-23T06:46:20.036Z,5.40
2019-04-23T06:48:58.999Z,5.28
2019-04-23T06:51:29.239Z,5.30
2019-04-23T06:53:59.943Z,5.28
2019-04-23T06:56:33.546Z,5.35
2019-04-23T06:59:02.587Z,5.40
2019-04-23T07:01:35.853Z,5.33
2019-04-23T07:04:05.595Z,5.70
2019-04-23T07:09:13.436Z,5.60
2019-04-23T07:11:51.282Z,6.05
2019-04-23T07:14:02.580Z,5.28
2019-04-23T07:16:58.402Z,5.53
2019-04-23T07:19:31.821Z,5.62
2019-04-23T07:24:45.838Z,6.03
2019-04-23T07:27:13.444Z,6.15
2019-04-23T07:29:55.550Z,6.17
2019-04-23T07:32:20.870Z,5.40
2019-04-23T07:34:59.270Z,5.80
2019-04-23T07:37:22.258Z,6.10
2019-04-23T07:40:09.886Z,6.00
2019-04-23T07:42:37.285Z,6.28
2019-04-23T07:45:10.506Z,7.03
2019-04-23T07:48:01.834Z,6.50
2019-04-23T07:58:19.547Z,6.55
2019-04-23T08:03:29.029Z,6.50
2019-04-23T08:06:02.670Z,6.87
2019-04-23T08:14:13.581Z,6.97
2019-04-23T08:21:39.788Z,7.05
2019-04-23T08:24:38.100Z,7.28
2019-04-23T08:27:07.554Z,7.47
2019-04-23T08:29:47.705Z,7.03
2019-04-23T08:32:12.032Z,7.10
2019-04-23T08:34:58.430Z,7.47
2019-04-23T08:39:43.181Z,7.00
2019-04-23T08:45:07.582Z,6.83
2019-04-23T08:48:03.645Z,7.15
2019-04-23T08:50:14.963Z,6.90
2019-04-23T08:52:48.259Z,7.58
2019-04-23T08:55:16.906Z,7.35
2019-04-23T08:57:43.255Z,7.42
2019-04-23T09:00:23.458Z,7.55
2019-04-23T09:02:54.080Z,7.83
2019-04-23T09:05:28.663Z,7.60
2019-04-23T09:07:59.794Z,7.65
2019-04-23T09:13:40.170Z,7.95
2019-04-23T09:15:55.889Z,7.10
2019-04-23T09:20:55.271Z,7.15
2019-04-23T09:23:46.723Z,7.12
2019-04-23T09:25:57.707Z,8.10
2019-04-23T09:28:42.955Z,7.35
2019-04-23T09:36:23.850Z,7.67
2019-04-23T09:38:55.812Z,8.33
2019-04-23T09:41:31.143Z,7.97
2019-04-23T09:44:47.266Z,7.40
2019-04-23T09:47:06.579Z,8.05
2019-04-23T09:49:42.535Z,8.75
2019-04-23T09:54:47.673Z,8.93
2019-04-23T09:57:10.869Z,7.33
2019-04-23T09:59:45.720Z,8.38
2019-04-23T10:02:05.530Z,8.65
2019-04-23T10:04:39.802Z,8.33
2019-04-23T10:07:07.275Z,7.92
2019-04-23T10:09:27.687Z,8.00
2019-04-23T10:11:58.745Z,8.88
2019-04-23T10:14:30.321Z,8.23
2019-04-23T10:17:02.062Z,8.28
2019-04-23T10:19:32.876Z,7.97
2019-04-23T10:22:05.059Z,8.55
2019-04-23T10:24:37.015Z,8.30
2019-04-23T10:27:08.380Z,8.75
2019-04-23T10:29:41.811Z,8.53
2019-04-23T10:32:15.803Z,8.30
2019-04-23T10:34:57.848Z,9.03
2019-04-23T10:37:31.634Z,8.45
2019-04-23T10:39:58.188Z,7.78
2019-04-23T10:42:30.699Z,9.35
2019-04-23T10:45:26.928Z,9.40
2019-04-23T10:50:57.166Z,10.25
2019-04-23T10:56:18.456Z,10.88
2019-04-23T11:01:21.344Z,9.78
2019-04-23T11:04:11.891Z,9.63
2019-04-23T11:06:39.661Z,9.30
2019-04-23T11:09:15.691Z,9.63
2019-04-23T11:11:40.750Z,11.00
2019-04-23T11:14:18.978Z,10.30
2019-04-23T11:19:23.751Z,10.50
2019-04-23T11:22:04.330Z,10.40
2019-04-23T11:24:36.145Z,10.58
2019-04-23T11:27:10.256Z,9.05
2019-04-23T11:35:05.055Z,11.00
2019-04-23T11:38:01.636Z,9.60
2019-04-23T11:40:08.698Z,8.98
2019-04-23T11:42:42.594Z,10.68
2019-04-23T11:45:30.589Z,9.53
2019-04-23T11:48:23.940Z,9.70
2019-04-23T11:50:38.036Z,9.50
2019-04-23T11:58:07.690Z,9.90
2019-04-23T12:00:45.620Z,10.30
2019-04-23T12:03:17.513Z,9.80
2019-04-23T12:06:15.434Z,9.88
2019-04-23T12:08:50.938Z,10.75
2019-04-23T12:11:50.261Z,10.03
2019-04-23T12:14:03.636Z,9.90
2019-04-23T12:16:38.413Z,9.70
2019-04-23T12:19:33.287Z,9.65
2019-04-23T12:21:45.398Z,10.13
2019-04-23T12:24:15.672Z,9.08
2019-04-23T12:26:46.450Z,10.30
2019-04-23T12:29:21.896Z,9.30
2019-04-23T12:32:14.537Z,9.88
2019-04-23T12:34:47.527Z,9.50
2019-04-23T12:37:32.763Z,9.53
2019-04-23T12:42:48.909Z,10.53
2019-04-23T12:53:10.189Z,9.23
2019-04-23T13:03:29.923Z,10.20
2019-04-23T13:05:57.535Z,10.48
2019-04-23T13:11:30.165Z,9.08
2019-04-23T13:13:56.385Z,9.08
2019-04-23T13:19:39.907Z,9.48
2019-04-23T13:25:05.375Z,10.57
2019-04-23T13:33:26.729Z,10.38
2019-04-23T13:35:55.230Z,10.38
2019-04-23T13:40:57.191Z,11.03
2019-04-23T13:43:30.366Z,9.95
2019-04-23T13:56:01.965Z,9.63
2019-04-23T13:58:50.462Z,10.00
2019-04-23T14:09:15.091Z,8.80
2019-04-23T14:16:35.850Z,9.78
2019-04-23T14:19:02.341Z,9.38
2019-04-23T14:22:21.237Z,10.63
2019-04-23T14:24:26.856Z,10.78
2019-04-23T14:26:48.893Z,10.98
2019-04-23T14:29:31.883Z,10.53
2019-04-23T14:32:05.145Z,11.73
2019-04-23T14:34:24.966Z,10.13
2019-04-23T14:39:34.086Z,9.85
2019-04-23T14:42:24.726Z,9.98
2019-04-23T14:44:41.543Z,10.38
2019-04-23T14:47:23.949Z,10.10
2019-04-23T14:55:56.942Z,10.38
2019-04-23T15:01:07.482Z,10.05
2019-04-23T15:03:35.400Z,10.85
2019-04-23T15:06:12.361Z,12.47
2019-04-23T15:08:40.644Z,10.88
2019-04-23T15:11:21.406Z,11.00
2019-04-23T15:16:17.382Z,11.35
2019-04-23T15:18:55.119Z,12.47
2019-04-23T15:21:39.698Z,12.13
2019-04-23T15:27:21.894Z,11.80
2019-04-23T15:28:37.517Z,13.08
2019-04-23T15:31:44.408Z,11.93
2019-04-23T15:34:14.197Z,12.10
2019-04-23T15:36:59.764Z,11.50
2019-04-23T15:41:55.869Z,13.03
2019-04-23T15:44:13.689Z,13.20
2019-04-23T15:46:47.209Z,11.83
2019-04-23T15:49:22.848Z,12.15
2019-04-23T15:54:32.076Z,11.78
2019-04-23T15:56:55.048Z,10.65
2019-04-23T16:01:41.236Z,11.40
2019-04-23T16:04:03.373Z,12.35
2019-04-23T16:06:36.857Z,11.15
2019-04-23T16:09:28.436Z,10.63
2019-04-23T16:11:58.961Z,9.80
2019-04-23T16:17:18.745Z,9.58
2019-04-23T16:23:00.951Z,11.95
2019-04-23T16:25:17.833Z,10.85
2019-04-23T16:27:56.397Z,9.78
2019-04-23T16:30:32.557Z,10.60
2019-04-23T16:38:23.239Z,10.77
2019-04-23T16:40:41.463Z,9.88
2019-04-23T16:45:55.535Z,8.75
2019-04-23T16:51:13.676Z,9.13
2019-04-23T16:53:27.532Z,8.53
2019-04-23T16:56:05.186Z,9.53
2019-04-23T16:58:33.612Z,8.90
2019-04-23T17:03:38.343Z,9.10
2019-04-23T17:06:12.159Z,10.05
2019-04-23T17:11:15.723Z,10.25
2019-04-23T17:13:52.099Z,9.53
2019-04-23T17:16:23.434Z,9.25
2019-04-23T17:18:55.250Z,9.08
2019-04-23T17:21:23.306Z,9.73
2019-04-23T17:24:08.999Z,9.30
2019-04-23T17:26:29.117Z,9.03
2019-04-23T17:29:08.431Z,9.18
2019-04-23T17:34:18.702Z,9.75
2019-04-23T17:36:45.841Z,10.75
2019-04-23T17:39:48.466Z,9.75
2019-04-23T17:42:22.481Z,9.30
2019-04-23T17:45:03.171Z,9.90
2019-04-23T17:47:28.559Z,10.28
2019-04-23T17:50:56.934Z,9.75
2019-04-23T17:52:35.112Z,9.68
2019-04-23T17:55:09.310Z,10.30
2019-04-23T18:02:55.963Z,9.38
2019-04-23T18:05:36.303Z,8.88
2019-04-23T18:08:11.789Z,7.30
2019-04-23T18:10:37.102Z,8.45
2019-04-23T18:13:06.020Z,8.00
2019-04-23T18:15:41.931Z,7.28
2019-04-23T18:18:16.551Z,6.80
2019-04-23T18:20:58.025Z,6.95
2019-04-23T18:23:26.189Z,6.95
2019-04-23T18:25:58.038Z,6.85
2019-04-23T18:28:29.610Z,6.62
2019-04-23T18:31:29.383Z,6.58
2019-04-23T18:34:12.616Z,7.00
2019-04-23T18:36:18.331Z,6.53
2019-04-23T18:41:43.045Z,6.33
2019-04-23T18:44:30.507Z,7.28
2019-04-23T18:52:39.438Z,9.63
2019-04-23T18:54:56.969Z,8.38
2019-04-23T18:57:27.398Z,8.60
2019-04-23T19:00:09.074Z,8.10
2019-04-23T19:02:52.349Z,9.03
2019-04-23T19:13:07.045Z,9.38
2019-04-23T19:23:50.997Z,9.75
2019-04-23T19:25:44.153Z,8.90
2019-04-23T19:28:38.358Z,10.38
2019-04-23T19:31:10.296Z,11.35
2019-04-23T19:33:45.485Z,9.40
2019-04-23T19:38:43.520Z,10.98
2019-04-23T19:41:19.066Z,10.08
2019-04-23T19:46:36.946Z,11.10
2019-04-23T19:48:57.904Z,10.65
2019-04-23T19:51:26.930Z,11.83
2019-04-23T19:54:16.722Z,11.30
2019-04-23T19:59:02.045Z,11.43
2019-04-23T20:01:33.412Z,11.38
2019-04-23T20:03:56.066Z,11.80
2019-04-23T20:07:00.144Z,12.75
2019-04-23T20:09:30.631Z,10.38
2019-04-23T20:11:50.677Z,10.90
2019-04-23T20:14:11.622Z,10.78
2019-04-23T20:17:21.451Z,10.23
2019-04-23T20:19:20.954Z,11.15
2019-04-23T20:22:00.256Z,11.22
2019-04-23T20:24:28.543Z,10.85
2019-04-23T20:26:59.269Z,11.05
2019-04-23T20:32:05.522Z,10.53
2019-04-23T20:34:53.098Z,11.35
2019-04-23T20:37:48.748Z,12.40
2019-04-23T20:39:56.683Z,12.05
2019-04-23T20:45:07.848Z,12.23
2019-04-23T20:47:37.179Z,13.40
2019-04-23T20:49:58.243Z,13.75
2019-04-23T20:52:46.599Z,13.90
2019-04-23T20:55:21.278Z,12.63
2019-04-23T21:00:30.336Z,13.72
2019-04-23T21:03:28.874Z,13.78
2019-04-23T21:05:33.176Z,13.75
2019-04-23T21:08:06.093Z,14.13
2019-04-23T21:10:46.867Z,13.03
2019-04-23T21:13:27.517Z,12.68
2019-04-23T21:15:45.284Z,12.35
2019-04-23T21:20:56.743Z,14.00
2019-04-23T21:23:24.338Z,14.45
2019-04-23T21:25:56.123Z,13.48
2019-04-23T21:28:37.180Z,14.38
2019-04-23T21:31:06.079Z,12.78
2019-04-23T21:33:59.613Z,12.85
2019-04-23T21:39:15.433Z,11.93
2019-04-23T21:44:35.908Z,12.18
2019-04-23T21:46:58.177Z,12.28
2019-04-23T21:52:11.175Z,12.03
2019-04-23T21:57:37.080Z,12.40
2019-04-23T22:03:29.637Z,12.47
2019-04-23T22:15:06.891Z,12.33
2019-04-23T22:17:44.855Z,11.90
2019-04-23T22:20:34.164Z,10.80
2019-04-23T22:28:51.001Z,11.85
2019-04-23T22:31:18.652Z,11.08
2019-04-23T22:34:02.293Z,12.37
2019-04-23T22:36:29.202Z,10.80
2019-04-23T22:39:07.813Z,11.15
2019-04-23T22:44:24.599Z,13.55
2019-04-23T22:46:52.133Z,11.25
2019-04-23T22:49:30.859Z,11.60
2019-04-23T22:51:59.184Z,12.00
2019-04-23T22:56:54.329Z,11.50
2019-04-23T22:59:27.985Z,11.80
2019-04-23T23:01:59.111Z,11.57
2019-04-23T23:04:33.519Z,11.10
2019-04-23T23:07:01.198Z,12.03
2019-04-23T23:12:04.384Z,13.40
2019-04-23T23:14:35.282Z,12.75
2019-04-23T23:17:16.326Z,13.10
2019-04-23T23:20:03.487Z,12.58
2019-04-23T23:25:23.860Z,13.25
2019-04-23T23:33:04.115Z,13.22
2019-04-23T23:35:34.663Z,14.00
2019-04-23T23:38:24.057Z,13.85
2019-04-23T23:41:05.418Z,13.22
2019-04-23T23:43:25.876Z,12.68
2019-04-23T23:48:48.457Z,13.20
2019-04-23T23:51:27.336Z,13.00
2019-04-23T23:56:52.322Z,12.95
2019-04-23T23:59:26.969Z,12.85
